createdAt,value
2023-01-19T00:00:40.696Z,-3.60
2023-01-19T00:02:13.782Z,-3.60
2023-01-19T00:03:47.758Z,-3.60
2023-01-19T00:05:20.828Z,-3.50
2023-01-19T00:06:53.952Z,-3.50
2023-01-19T00:08:27.098Z,-3.50
2023-01-19T00:10:00.434Z,-3.50
2023-01-19T00:11:33.527Z,-3.70
2023-01-19T00:13:06.579Z,-3.70
2023-01-19T00:14:41.089Z,-3.80
2023-01-19T00:16:17.422Z,-3.80
2023-01-19T00:17:50.608Z,-3.80
2023-01-19T00:19:23.682Z,-3.80
2023-01-19T00:20:56.796Z,-3.80
2023-01-19T00:22:28.886Z,-3.70
2023-01-19T00:24:01.991Z,-3.80
2023-01-19T00:25:34.367Z,-3.80
2023-01-19T00:27:07.448Z,-3.80
2023-01-19T00:28:40.514Z,-3.70
2023-01-19T00:30:15.479Z,-3.80
2023-01-19T00:31:48.583Z,-3.80
2023-01-19T00:33:21.675Z,-3.80
2023-01-19T00:34:54.719Z,-3.80
2023-01-19T00:36:27.834Z,-3.90
2023-01-19T00:38:00.141Z,-3.90
2023-01-19T00:39:33.225Z,-3.90
2023-01-19T00:41:06.737Z,-3.90
2023-01-19T00:42:41.648Z,-3.90
2023-01-19T00:44:14.851Z,-4.00
2023-01-19T00:45:49.406Z,-4.00
2023-01-19T00:47:21.514Z,-4.00
2023-01-19T00:48:54.625Z,-4.00
2023-01-19T00:50:29.813Z,-4.00
2023-01-19T00:52:01.986Z,-4.10
2023-01-19T00:53:35.070Z,-4.10
2023-01-19T00:55:08.451Z,-4.10
2023-01-19T00:56:41.519Z,-4.20
2023-01-19T00:58:14.666Z,-4.20
2023-01-19T00:59:47.725Z,-4.30
2023-01-19T01:01:22.281Z,-4.30
2023-01-19T01:03:15.242Z,-4.30
2023-01-19T01:04:48.327Z,-4.40
2023-01-19T01:06:21.834Z,-4.50
2023-01-19T01:07:54.932Z,-4.60
2023-01-19T01:09:28.177Z,-4.60
2023-01-19T01:11:01.515Z,-4.60
2023-01-19T01:12:33.620Z,-4.70
2023-01-19T01:14:06.880Z,-4.70
2023-01-19T01:15:39.978Z,-4.70
2023-01-19T01:17:14.439Z,-4.70
2023-01-19T01:18:47.694Z,-4.80
2023-01-19T01:20:22.887Z,-4.70
2023-01-19T01:21:56.532Z,-4.70
2023-01-19T01:23:28.601Z,-4.80
2023-01-19T01:25:01.706Z,-4.90
2023-01-19T01:26:34.802Z,-4.90
2023-01-19T01:28:08.950Z,-5.00
2023-01-19T01:29:46.437Z,-4.90
2023-01-19T01:31:19.584Z,-4.90
2023-01-19T01:32:54.021Z,-4.90
2023-01-19T01:34:27.183Z,-4.90
2023-01-19T01:36:00.268Z,-5.00
2023-01-19T01:37:33.401Z,-5.00
2023-01-19T01:39:06.650Z,-5.00
2023-01-19T01:40:40.730Z,-5.10
2023-01-19T01:42:18.808Z,-5.20
2023-01-19T01:43:56.549Z,-5.20
2023-01-19T01:45:33.144Z,-5.20
2023-01-19T01:47:07.221Z,-5.20
2023-01-19T01:48:43.776Z,-5.20
2023-01-19T01:50:20.680Z,-5.20
2023-01-19T01:51:54.566Z,-5.20
2023-01-19T01:53:28.855Z,-5.10
2023-01-19T01:55:03.111Z,-5.00
2023-01-19T01:56:39.622Z,-5.00
2023-01-19T01:58:13.777Z,-5.00
2023-01-19T01:59:49.822Z,-5.00
2023-01-19T02:01:40.647Z,-5.10
2023-01-19T02:03:12.920Z,-5.10
2023-01-19T02:04:50.125Z,-5.20
2023-01-19T02:06:23.239Z,-5.30
2023-01-19T02:08:19.401Z,-5.30
2023-01-19T02:10:10.230Z,-5.40
2023-01-19T02:12:01.152Z,-5.40
2023-01-19T02:13:37.172Z,-5.50
2023-01-19T02:15:16.423Z,-5.50
2023-01-19T02:16:49.722Z,-5.60
2023-01-19T02:18:24.356Z,-5.60
2023-01-19T02:19:58.117Z,-5.70
2023-01-19T02:21:37.405Z,-5.80
2023-01-19T02:23:18.452Z,-5.80
2023-01-19T02:24:53.295Z,-5.90
2023-01-19T02:26:29.413Z,-5.90
2023-01-19T02:28:02.089Z,-5.90
2023-01-19T02:29:36.021Z,-5.60
2023-01-19T02:31:09.890Z,-5.50
2023-01-19T02:32:43.197Z,-5.40
2023-01-19T02:34:18.304Z,-5.40
2023-01-19T02:35:53.228Z,-5.50
2023-01-19T02:37:27.644Z,-5.60
2023-01-19T02:39:03.100Z,-5.70
2023-01-19T02:40:38.590Z,-5.70
2023-01-19T02:42:15.016Z,-5.90
2023-01-19T02:43:49.888Z,-5.90
2023-01-19T02:45:24.042Z,-6.00
2023-01-19T02:46:57.454Z,-6.10
2023-01-19T02:48:30.731Z,-6.10
2023-01-19T02:50:04.032Z,-6.10
2023-01-19T02:51:37.265Z,-6.10
2023-01-19T02:53:34.967Z,-6.10
2023-01-19T02:55:16.419Z,-6.10
2023-01-19T02:57:11.632Z,-6.10
2023-01-19T02:58:51.633Z,-6.20
2023-01-19T03:00:37.373Z,-6.20
2023-01-19T03:02:22.879Z,-6.30
2023-01-19T03:04:00.663Z,-6.30
2023-01-19T03:05:51.742Z,-6.30
2023-01-19T03:07:35.282Z,-6.40
2023-01-19T03:09:15.943Z,-6.30
2023-01-19T03:10:58.167Z,-6.20
2023-01-19T03:12:40.795Z,-6.20
2023-01-19T03:14:16.786Z,-6.30
2023-01-19T03:15:51.771Z,-6.30
2023-01-19T03:17:26.416Z,-6.30
2023-01-19T03:19:05.660Z,-6.20
2023-01-19T03:20:40.192Z,-6.20
2023-01-19T03:22:18.924Z,-6.10
2023-01-19T03:23:54.283Z,-6.10
2023-01-19T03:25:29.140Z,-5.90
2023-01-19T03:27:06.307Z,-5.90
2023-01-19T03:28:43.252Z,-5.90
2023-01-19T03:30:21.841Z,-5.90
2023-01-19T03:31:55.619Z,-5.80
2023-01-19T03:33:32.768Z,-5.90
2023-01-19T03:35:10.097Z,-5.90
2023-01-19T03:36:46.947Z,-6.00
2023-01-19T03:38:25.430Z,-6.00
2023-01-19T03:39:58.759Z,-5.70
2023-01-19T03:41:34.284Z,-5.50
2023-01-19T03:43:08.404Z,-5.30
2023-01-19T03:44:44.802Z,-5.40
2023-01-19T03:46:18.836Z,-5.50
2023-01-19T03:47:52.790Z,-5.70
2023-01-19T03:49:26.056Z,-5.80
2023-01-19T03:50:59.712Z,-5.90
2023-01-19T03:52:34.427Z,-6.00
2023-01-19T03:54:08.433Z,-6.10
2023-01-19T03:55:44.145Z,-6.10
2023-01-19T03:57:17.403Z,-6.10
2023-01-19T03:58:49.895Z,-6.20
2023-01-19T04:00:24.575Z,-6.20
2023-01-19T04:01:57.789Z,-6.20
2023-01-19T04:03:30.942Z,-6.30
2023-01-19T04:05:04.192Z,-6.40
2023-01-19T04:06:37.295Z,-6.50
2023-01-19T04:08:09.927Z,-6.60
2023-01-19T04:09:43.066Z,-6.60
2023-01-19T04:11:15.195Z,-6.70
2023-01-19T04:12:48.858Z,-6.60
2023-01-19T04:14:21.923Z,-6.50
2023-01-19T04:15:56.480Z,-6.60
2023-01-19T04:17:29.580Z,-6.50
2023-01-19T04:19:02.685Z,-6.50
2023-01-19T04:20:35.781Z,-6.50
2023-01-19T04:22:09.299Z,-6.70
2023-01-19T04:23:44.308Z,-6.80
2023-01-19T04:25:17.729Z,-6.80
2023-01-19T04:26:53.414Z,-6.80
2023-01-19T04:28:26.553Z,-6.90
2023-01-19T04:30:00.377Z,-6.90
2023-01-19T04:31:35.654Z,-6.90
2023-01-19T04:33:07.925Z,-7.00
2023-01-19T04:34:41.039Z,-7.00
2023-01-19T04:36:13.117Z,-7.00
2023-01-19T04:37:46.503Z,-7.00
2023-01-19T04:39:19.570Z,-7.10
2023-01-19T04:40:53.680Z,-7.00
2023-01-19T04:42:27.553Z,-6.90
2023-01-19T04:44:00.773Z,-6.90
2023-01-19T04:45:33.999Z,-6.80
2023-01-19T04:47:08.496Z,-6.80
2023-01-19T04:48:42.308Z,-6.90
2023-01-19T04:50:15.483Z,-7.00
2023-01-19T04:51:48.637Z,-7.00
2023-01-19T04:53:21.703Z,-7.00
2023-01-19T04:54:53.779Z,-7.00
2023-01-19T04:56:26.942Z,-7.00
2023-01-19T04:58:00.107Z,-7.00
2023-01-19T04:59:32.424Z,-7.00
2023-01-19T05:01:09.596Z,-7.00
2023-01-19T05:02:45.366Z,-6.90
2023-01-19T05:04:18.528Z,-6.90
2023-01-19T05:05:51.633Z,-6.70
2023-01-19T05:07:24.763Z,-6.60
2023-01-19T05:08:57.991Z,-6.60
2023-01-19T05:10:31.223Z,-6.60
2023-01-19T05:12:04.768Z,-6.60
2023-01-19T05:13:37.892Z,-6.60
2023-01-19T05:15:12.012Z,-6.70
2023-01-19T05:16:45.069Z,-6.70
2023-01-19T05:18:18.728Z,-6.70
2023-01-19T05:19:51.865Z,-6.80
2023-01-19T05:21:23.986Z,-7.00
2023-01-19T05:22:57.095Z,-7.00
2023-01-19T05:24:29.277Z,-7.00
2023-01-19T05:26:03.553Z,-6.90
2023-01-19T05:27:36.931Z,-6.80
2023-01-19T05:29:10.237Z,-6.80
2023-01-19T05:30:43.371Z,-6.90
2023-01-19T05:32:16.421Z,-6.90
2023-01-19T05:33:50.860Z,-6.90
2023-01-19T05:35:35.411Z,-7.10
2023-01-19T05:37:09.037Z,-7.10
2023-01-19T05:38:42.114Z,-7.20
2023-01-19T05:40:15.192Z,-7.20
2023-01-19T05:41:48.360Z,-7.20
2023-01-19T05:43:21.447Z,-7.30
2023-01-19T05:44:54.581Z,-7.30
2023-01-19T05:46:28.058Z,-7.10
2023-01-19T05:48:01.574Z,-7.00
2023-01-19T05:49:36.468Z,-7.10
2023-01-19T05:51:09.551Z,-7.20
2023-01-19T05:52:42.627Z,-7.20
2023-01-19T05:54:16.681Z,-7.20
2023-01-19T05:55:49.883Z,-7.10
2023-01-19T05:57:23.419Z,-7.00
2023-01-19T05:58:55.565Z,-7.00
2023-01-19T06:00:29.178Z,-7.00
2023-01-19T06:02:02.761Z,-6.80
2023-01-19T06:03:37.270Z,-6.60
2023-01-19T06:05:12.223Z,-6.50
2023-01-19T06:06:45.270Z,-6.50
2023-01-19T06:08:18.606Z,-6.40
2023-01-19T06:09:51.652Z,-6.40
2023-01-19T06:11:26.058Z,-6.40
2023-01-19T06:12:59.412Z,-6.40
2023-01-19T06:14:33.494Z,-6.50
2023-01-19T06:16:07.647Z,-6.50
2023-01-19T06:17:40.831Z,-6.50
2023-01-19T06:19:13.892Z,-6.60
2023-01-19T06:20:48.385Z,-6.60
2023-01-19T06:22:21.472Z,-6.60
2023-01-19T06:23:54.725Z,-6.60
2023-01-19T06:25:27.855Z,-6.60
2023-01-19T06:27:01.346Z,-6.70
2023-01-19T06:28:34.413Z,-6.70
2023-01-19T06:30:08.779Z,-6.70
2023-01-19T06:31:41.944Z,-6.70
2023-01-19T06:33:15.093Z,-6.80
2023-01-19T06:34:48.230Z,-6.80
2023-01-19T06:36:22.702Z,-6.80
2023-01-19T06:37:55.756Z,-6.90
2023-01-19T06:39:28.814Z,-6.90
2023-01-19T06:41:03.264Z,-6.80
2023-01-19T06:42:36.867Z,-6.80
2023-01-19T06:44:09.946Z,-6.80
2023-01-19T06:45:45.163Z,-6.90
2023-01-19T06:47:18.377Z,-6.80
2023-01-19T06:48:51.850Z,-6.90
2023-01-19T06:50:25.006Z,-6.90
2023-01-19T06:51:59.716Z,-6.90
2023-01-19T06:53:32.931Z,-7.00
2023-01-19T06:55:07.584Z,-7.00
2023-01-19T06:56:40.640Z,-6.90
2023-01-19T06:58:14.613Z,-6.80
2023-01-19T06:59:48.936Z,-6.70
2023-01-19T07:01:22.533Z,-6.60
2023-01-19T07:02:55.957Z,-6.50
2023-01-19T07:04:29.111Z,-6.50
2023-01-19T07:06:03.353Z,-6.40
2023-01-19T07:07:39.699Z,-6.40
2023-01-19T07:09:14.213Z,-6.50
2023-01-19T07:11:26.141Z,-6.50
2023-01-19T07:12:42.230Z,-6.50
2023-01-19T07:14:15.668Z,-6.60
2023-01-19T07:15:48.736Z,-6.50
2023-01-19T07:17:21.829Z,-6.50
2023-01-19T07:18:54.945Z,-6.40
2023-01-19T07:20:28.178Z,-6.40
2023-01-19T07:22:01.264Z,-6.40
2023-01-19T07:23:35.777Z,-6.30
2023-01-19T07:25:09.902Z,-6.30
2023-01-19T07:26:42.979Z,-6.20
2023-01-19T07:28:16.653Z,-6.10
2023-01-19T07:29:49.730Z,-6.10
2023-01-19T07:31:23.021Z,-6.00
2023-01-19T07:32:58.556Z,-6.00
2023-01-19T07:34:31.914Z,-5.90
2023-01-19T07:36:05.271Z,-5.80
2023-01-19T07:37:38.412Z,-5.80
2023-01-19T07:39:12.883Z,-5.80
2023-01-19T07:40:46.919Z,-5.70
2023-01-19T07:42:20.088Z,-5.70
2023-01-19T07:43:53.919Z,-5.70
2023-01-19T07:45:28.049Z,-5.50
2023-01-19T07:47:01.223Z,-5.40
2023-01-19T07:48:34.720Z,-5.10
2023-01-19T07:50:08.544Z,-4.90
2023-01-19T07:51:41.686Z,-4.60
2023-01-19T07:53:14.874Z,-4.30
2023-01-19T07:54:50.966Z,-4.10
2023-01-19T07:56:24.768Z,-3.80
2023-01-19T07:57:57.951Z,-3.60
2023-01-19T07:59:32.296Z,-3.50
2023-01-19T08:01:08.005Z,-3.20
2023-01-19T08:02:41.205Z,-3.00
2023-01-19T08:04:14.634Z,-2.90
2023-01-19T08:05:52.479Z,-2.90
2023-01-19T08:07:25.731Z,-2.90
2023-01-19T08:08:58.795Z,-2.80
2023-01-19T08:10:34.756Z,-2.90
2023-01-19T08:12:08.364Z,-2.80
2023-01-19T08:13:41.423Z,-2.60
2023-01-19T08:15:15.827Z,-2.30
2023-01-19T08:16:49.699Z,-2.00
2023-01-19T08:18:23.084Z,-1.70
2023-01-19T08:19:56.169Z,-1.40
2023-01-19T08:21:29.542Z,-1.20
2023-01-19T08:23:03.115Z,-1.20
2023-01-19T08:24:36.704Z,-1.00
2023-01-19T08:26:21.278Z,-1.00
2023-01-19T08:27:56.098Z,-0.80
2023-01-19T08:29:30.836Z,-0.80
2023-01-19T08:31:18.518Z,-0.80
2023-01-19T08:32:52.848Z,-0.90
2023-01-19T08:34:25.969Z,-0.90
2023-01-19T08:35:59.349Z,-0.90
2023-01-19T08:37:34.209Z,-0.90
2023-01-19T08:39:07.511Z,-1.10
2023-01-19T08:40:42.170Z,-1.10
2023-01-19T08:42:16.620Z,-0.90
2023-01-19T08:43:49.811Z,-0.80
2023-01-19T08:45:22.864Z,-0.50
2023-01-19T08:46:55.972Z,-0.20
2023-01-19T08:48:29.082Z,0.00
2023-01-19T08:50:02.171Z,0.30
2023-01-19T08:51:35.287Z,0.40
2023-01-19T08:53:08.846Z,0.70
2023-01-19T08:54:41.972Z,0.80
2023-01-19T08:56:15.221Z,1.10
2023-01-19T08:57:52.436Z,1.30
2023-01-19T08:59:25.499Z,1.50
2023-01-19T09:01:03.132Z,1.60
2023-01-19T09:02:37.367Z,1.80
2023-01-19T09:04:10.557Z,2.30
2023-01-19T09:05:43.706Z,2.90
2023-01-19T09:07:17.697Z,3.30
2023-01-19T09:08:50.797Z,3.90
2023-01-19T09:10:23.860Z,4.40
2023-01-19T09:11:56.963Z,4.70
2023-01-19T09:13:31.408Z,4.70
2023-01-19T09:15:05.452Z,4.20
2023-01-19T09:16:38.524Z,4.00
2023-01-19T09:18:13.724Z,3.60
2023-01-19T09:19:46.965Z,3.60
2023-01-19T09:21:20.112Z,3.30
2023-01-19T09:22:53.209Z,3.20
2023-01-19T09:24:26.353Z,2.90
2023-01-19T09:26:01.203Z,2.50
2023-01-19T09:27:34.824Z,2.20
2023-01-19T09:29:09.346Z,2.10
2023-01-19T09:30:44.322Z,1.90
2023-01-19T09:32:18.350Z,2.20
2023-01-19T09:33:51.433Z,2.30
2023-01-19T09:35:24.560Z,2.30
2023-01-19T09:36:57.674Z,2.40
2023-01-19T09:38:32.927Z,2.20
2023-01-19T09:40:07.291Z,2.30
2023-01-19T09:41:47.329Z,2.30
2023-01-19T09:43:34.652Z,2.30
2023-01-19T09:45:18.131Z,1.90
2023-01-19T09:46:51.227Z,1.90
2023-01-19T09:48:31.726Z,2.00
2023-01-19T09:50:11.139Z,2.20
2023-01-19T09:51:48.038Z,2.10
2023-01-19T09:53:29.068Z,2.10
2023-01-19T09:55:02.219Z,2.10
2023-01-19T09:56:35.476Z,2.20
2023-01-19T09:58:13.392Z,2.30
2023-01-19T09:59:49.419Z,2.10
2023-01-19T10:01:40.961Z,1.90
2023-01-19T10:03:16.440Z,1.90
2023-01-19T10:04:59.886Z,2.00
2023-01-19T10:06:33.197Z,2.00
2023-01-19T10:08:16.635Z,2.10
2023-01-19T10:10:13.893Z,2.40
2023-01-19T10:11:53.446Z,2.60
2023-01-19T10:13:34.099Z,2.60
2023-01-19T10:15:17.971Z,2.60
2023-01-19T10:16:59.578Z,2.70
2023-01-19T10:18:47.869Z,2.80
2023-01-19T10:20:27.112Z,2.90
2023-01-19T10:22:04.649Z,2.60
2023-01-19T10:23:44.081Z,2.50
2023-01-19T10:25:20.903Z,2.60
2023-01-19T10:26:55.845Z,2.80
2023-01-19T10:28:29.598Z,3.10
2023-01-19T10:30:04.052Z,3.10
2023-01-19T10:31:39.966Z,2.90
2023-01-19T10:33:15.373Z,2.90
2023-01-19T10:34:49.166Z,2.90
2023-01-19T10:36:26.984Z,2.90
2023-01-19T10:38:02.109Z,2.90
2023-01-19T10:39:38.563Z,3.10
2023-01-19T10:41:19.554Z,3.30
2023-01-19T10:42:53.143Z,3.70
2023-01-19T10:44:35.184Z,4.10
2023-01-19T10:46:15.382Z,4.60
2023-01-19T10:47:50.004Z,4.60
2023-01-19T10:49:42.775Z,4.50
2023-01-19T10:51:16.371Z,4.70
2023-01-19T10:52:51.047Z,4.60
2023-01-19T10:54:24.954Z,4.80
2023-01-19T10:56:13.507Z,5.00
2023-01-19T10:57:53.012Z,5.20
2023-01-19T10:59:35.410Z,5.40
2023-01-19T11:01:18.206Z,5.80
2023-01-19T11:02:51.932Z,6.40
2023-01-19T11:04:30.162Z,6.80
2023-01-19T11:06:21.541Z,7.20
2023-01-19T11:07:55.183Z,7.60
2023-01-19T11:09:28.489Z,7.80
2023-01-19T11:11:05.163Z,8.20
2023-01-19T11:12:42.581Z,8.50
2023-01-19T11:14:19.671Z,8.50
2023-01-19T11:15:57.449Z,8.40
2023-01-19T11:17:30.628Z,8.40
2023-01-19T11:19:03.902Z,8.80
2023-01-19T11:20:49.506Z,8.40
2023-01-19T11:22:29.047Z,8.30
2023-01-19T11:24:05.467Z,8.10
2023-01-19T11:25:38.624Z,7.80
2023-01-19T11:27:11.734Z,7.80
2023-01-19T11:28:51.265Z,7.60
2023-01-19T11:30:27.193Z,7.60
2023-01-19T11:32:13.409Z,7.20
2023-01-19T11:33:51.495Z,7.20
2023-01-19T11:35:35.241Z,7.40
2023-01-19T11:37:29.755Z,7.50
2023-01-19T11:39:23.570Z,7.50
2023-01-19T11:40:59.099Z,7.20
2023-01-19T11:42:36.599Z,6.50
2023-01-19T11:44:17.228Z,5.80
2023-01-19T11:45:50.699Z,5.50
2023-01-19T11:47:28.270Z,5.10
2023-01-19T11:49:05.649Z,4.80
2023-01-19T11:50:43.690Z,4.60
2023-01-19T11:52:25.163Z,4.70
2023-01-19T11:54:00.069Z,5.00
2023-01-19T11:55:38.331Z,5.10
2023-01-19T11:57:16.026Z,4.80
2023-01-19T11:58:49.087Z,5.10
2023-01-19T12:00:29.002Z,5.60
2023-01-19T12:02:06.101Z,6.10
2023-01-19T12:03:43.568Z,6.30
2023-01-19T12:05:21.159Z,6.50
2023-01-19T12:06:57.349Z,6.60
2023-01-19T12:08:36.034Z,6.80
2023-01-19T12:10:22.072Z,6.70
2023-01-19T12:11:59.208Z,6.70
2023-01-19T12:13:34.616Z,7.00
2023-01-19T12:15:18.297Z,7.10
2023-01-19T12:16:54.169Z,7.00
2023-01-19T12:18:31.642Z,7.20
2023-01-19T12:20:19.613Z,7.10
2023-01-19T12:21:53.480Z,7.10
2023-01-19T12:23:44.152Z,7.30
2023-01-19T12:25:23.896Z,7.30
2023-01-19T12:26:59.296Z,7.40
2023-01-19T12:28:35.006Z,7.40
2023-01-19T12:30:20.172Z,7.40
2023-01-19T12:32:32.672Z,7.20
2023-01-19T12:34:32.411Z,6.60
2023-01-19T12:36:10.697Z,6.50
2023-01-19T12:37:45.308Z,6.60
2023-01-19T12:39:21.080Z,6.80
2023-01-19T12:41:27.740Z,6.80
2023-01-19T12:43:04.141Z,6.80
2023-01-19T12:44:37.717Z,7.00
2023-01-19T12:46:20.961Z,7.20
2023-01-19T12:47:54.986Z,7.40
2023-01-19T12:49:33.937Z,7.50
2023-01-19T12:51:07.199Z,7.60
2023-01-19T12:52:47.916Z,8.10
2023-01-19T12:54:27.424Z,8.20
2023-01-19T12:56:04.132Z,8.00
2023-01-19T12:57:41.189Z,8.00
2023-01-19T12:59:26.583Z,8.30
2023-01-19T13:01:15.709Z,8.30
2023-01-19T13:02:50.837Z,8.30
2023-01-19T13:04:34.867Z,7.70
2023-01-19T13:06:08.079Z,7.60
2023-01-19T13:08:15.358Z,8.00
2023-01-19T13:09:48.498Z,8.60
2023-01-19T13:11:26.804Z,8.90
2023-01-19T13:13:18.791Z,8.80
2023-01-19T13:14:52.275Z,8.60
2023-01-19T13:16:54.601Z,8.40
2023-01-19T13:18:29.958Z,8.40
2023-01-19T13:20:22.717Z,8.90
2023-01-19T13:21:55.829Z,8.60
2023-01-19T13:23:29.706Z,8.60
2023-01-19T13:25:07.458Z,8.70
2023-01-19T13:26:53.696Z,8.90
2023-01-19T13:28:36.347Z,9.20
2023-01-19T13:30:16.722Z,8.90
2023-01-19T13:31:50.381Z,9.20
2023-01-19T13:33:26.454Z,9.20
2023-01-19T13:35:02.159Z,8.10
2023-01-19T13:36:37.935Z,7.90
2023-01-19T13:38:14.232Z,7.10
2023-01-19T13:39:50.139Z,7.40
2023-01-19T13:41:26.789Z,6.80
2023-01-19T13:43:02.539Z,7.00
2023-01-19T13:44:40.162Z,7.30
2023-01-19T13:46:17.297Z,7.40
2023-01-19T13:47:52.493Z,7.90
2023-01-19T13:49:30.451Z,8.00
2023-01-19T13:51:05.651Z,8.00
2023-01-19T13:52:45.806Z,7.70
2023-01-19T13:54:19.075Z,8.00
2023-01-19T13:56:07.754Z,7.90
2023-01-19T13:57:42.443Z,6.70
2023-01-19T13:59:17.187Z,6.20
2023-01-19T14:00:50.575Z,6.40
2023-01-19T14:02:23.763Z,6.60
2023-01-19T14:03:57.095Z,6.60
2023-01-19T14:05:32.395Z,6.50
2023-01-19T14:07:08.523Z,6.60
2023-01-19T14:08:41.562Z,6.70
2023-01-19T14:10:16.885Z,7.00
2023-01-19T14:12:07.301Z,6.80
2023-01-19T14:13:45.477Z,7.00
2023-01-19T14:15:19.999Z,6.90
2023-01-19T14:16:53.339Z,5.90
2023-01-19T14:18:30.041Z,5.80
2023-01-19T14:20:05.396Z,5.80
2023-01-19T14:21:40.719Z,5.80
2023-01-19T14:23:45.703Z,5.60
2023-01-19T14:25:32.824Z,4.90
2023-01-19T14:27:18.249Z,4.20
2023-01-19T14:28:51.761Z,3.60
2023-01-19T14:30:27.658Z,3.30
2023-01-19T14:32:14.169Z,3.20
2023-01-19T14:33:48.223Z,3.10
2023-01-19T14:35:25.955Z,3.10
2023-01-19T14:36:59.937Z,3.00
2023-01-19T14:38:33.023Z,2.80
2023-01-19T14:40:19.954Z,2.60
2023-01-19T14:41:54.389Z,2.40
2023-01-19T14:43:28.597Z,2.30
2023-01-19T14:45:03.771Z,2.10
2023-01-19T14:46:39.140Z,2.00
2023-01-19T14:48:18.327Z,1.90
2023-01-19T14:49:51.596Z,1.80
2023-01-19T14:51:27.665Z,1.70
2023-01-19T14:53:04.071Z,1.60
2023-01-19T14:54:40.801Z,1.30
2023-01-19T14:56:14.004Z,1.20
2023-01-19T14:57:47.060Z,1.10
2023-01-19T14:59:20.298Z,0.90
2023-01-19T15:00:55.728Z,0.80
2023-01-19T15:02:30.332Z,0.80
2023-01-19T15:04:03.523Z,0.70
2023-01-19T15:05:37.568Z,0.60
2023-01-19T15:07:18.459Z,0.60
2023-01-19T15:08:53.343Z,0.70
2023-01-19T15:10:27.110Z,0.60
2023-01-19T15:12:01.081Z,0.50
2023-01-19T15:13:34.373Z,0.30
2023-01-19T15:15:14.829Z,0.10
2023-01-19T15:16:48.948Z,-0.10
2023-01-19T15:18:26.861Z,-0.10
2023-01-19T15:19:59.950Z,-0.20
2023-01-19T15:21:33.018Z,-0.30
2023-01-19T15:23:06.118Z,-0.30
2023-01-19T15:24:40.812Z,-0.30
2023-01-19T15:26:18.086Z,-0.40
2023-01-19T15:27:51.198Z,-0.40
2023-01-19T15:29:26.817Z,-0.40
2023-01-19T15:31:01.190Z,-0.40
2023-01-19T15:32:34.271Z,-0.40
2023-01-19T15:34:11.150Z,-0.60
2023-01-19T15:35:44.250Z,-0.60
2023-01-19T15:37:17.333Z,-0.80
2023-01-19T15:38:51.056Z,-0.80
2023-01-19T15:40:24.276Z,-1.00
2023-01-19T15:41:57.696Z,-1.10
2023-01-19T15:43:30.783Z,-1.20
2023-01-19T15:45:04.126Z,-1.40
2023-01-19T15:46:37.377Z,-1.40
2023-01-19T15:48:12.159Z,-1.50
2023-01-19T15:49:46.800Z,-1.60
2023-01-19T15:51:22.228Z,-1.60
2023-01-19T15:52:55.383Z,-1.80
2023-01-19T15:54:28.498Z,-1.80
2023-01-19T15:56:01.585Z,-1.60
2023-01-19T15:57:35.163Z,-1.70
2023-01-19T15:59:08.293Z,-1.80
2023-01-19T16:00:41.551Z,-1.80
2023-01-19T16:02:14.799Z,-1.90
2023-01-19T16:03:48.111Z,-2.00
2023-01-19T16:05:26.011Z,-2.10
2023-01-19T16:07:03.961Z,-2.10
2023-01-19T16:08:37.512Z,-2.30
2023-01-19T16:10:12.790Z,-2.20
2023-01-19T16:11:46.106Z,-2.30
2023-01-19T16:13:19.151Z,-2.40
2023-01-19T16:14:52.438Z,-2.40
2023-01-19T16:16:27.995Z,-2.40
2023-01-19T16:18:01.190Z,-2.50
2023-01-19T16:19:34.249Z,-2.40
2023-01-19T16:21:08.825Z,-2.40
2023-01-19T16:22:42.070Z,-2.30
2023-01-19T16:24:15.126Z,-2.30
2023-01-19T16:25:57.647Z,-2.30
2023-01-19T16:27:30.907Z,-2.30
2023-01-19T16:29:08.623Z,-2.30
2023-01-19T16:30:41.826Z,-2.10
2023-01-19T16:32:16.014Z,-2.00
2023-01-19T16:33:50.653Z,-2.00
2023-01-19T16:35:23.772Z,-2.00
2023-01-19T16:36:58.203Z,-1.90
2023-01-19T16:38:31.341Z,-1.90
2023-01-19T16:40:04.860Z,-1.90
2023-01-19T16:41:38.296Z,-1.80
2023-01-19T16:43:11.587Z,-1.80
2023-01-19T16:44:44.786Z,-1.80
2023-01-19T16:46:21.222Z,-1.70
2023-01-19T16:47:54.495Z,-1.70
2023-01-19T16:49:28.709Z,-1.70
2023-01-19T16:51:03.672Z,-1.60
2023-01-19T16:52:38.126Z,-1.60
2023-01-19T16:54:14.230Z,-1.50
2023-01-19T16:55:48.541Z,-1.60
2023-01-19T16:57:25.108Z,-1.50
2023-01-19T16:58:59.755Z,-1.50
2023-01-19T17:00:32.920Z,-1.60
2023-01-19T17:02:06.167Z,-1.60
2023-01-19T17:03:39.999Z,-1.60
2023-01-19T17:05:14.523Z,-1.50
2023-01-19T17:06:47.723Z,-1.50
2023-01-19T17:08:22.254Z,-1.50
2023-01-19T17:09:56.041Z,-1.40
2023-01-19T17:11:30.670Z,-1.40
2023-01-19T17:13:04.338Z,-1.40
2023-01-19T17:14:38.255Z,-1.40
2023-01-19T17:16:11.365Z,-1.40
2023-01-19T17:17:44.432Z,-1.40
2023-01-19T17:19:19.680Z,-1.30
2023-01-19T17:20:52.751Z,-1.20
2023-01-19T17:22:25.827Z,-1.20
2023-01-19T17:24:00.832Z,-1.10
2023-01-19T17:25:34.329Z,-1.10
2023-01-19T17:27:07.405Z,-1.10
2023-01-19T17:28:41.116Z,-1.00
2023-01-19T17:30:14.998Z,-1.00
2023-01-19T17:31:50.596Z,-0.90
2023-01-19T17:33:25.308Z,-0.90
2023-01-19T17:34:58.403Z,-0.70
2023-01-19T17:36:32.676Z,-0.60
2023-01-19T17:38:05.807Z,-0.60
2023-01-19T17:39:40.374Z,-0.50
2023-01-19T17:41:15.010Z,-0.50
2023-01-19T17:42:48.104Z,-0.50
2023-01-19T17:44:21.175Z,-0.40
2023-01-19T17:45:54.391Z,-0.50
2023-01-19T17:47:27.514Z,-0.50
2023-01-19T17:49:03.221Z,-0.50
2023-01-19T17:50:36.298Z,-0.40
2023-01-19T17:52:09.445Z,-0.30
2023-01-19T17:53:43.007Z,-0.20
2023-01-19T17:55:18.392Z,-0.20
2023-01-19T17:56:51.475Z,-0.20
2023-01-19T17:58:26.092Z,-0.20
2023-01-19T17:59:59.128Z,-0.20
2023-01-19T18:01:34.212Z,-0.30
2023-01-19T18:03:07.299Z,-0.30
2023-01-19T18:04:40.926Z,-0.30
2023-01-19T18:06:14.660Z,-0.30
2023-01-19T18:07:48.120Z,-0.40
2023-01-19T18:09:21.262Z,-0.40
2023-01-19T18:10:56.280Z,-0.30
2023-01-19T18:12:29.372Z,-0.30
2023-01-19T18:14:02.436Z,-0.20
2023-01-19T18:15:35.589Z,-0.10
2023-01-19T18:17:08.960Z,-0.10
2023-01-19T18:18:42.225Z,-0.20
2023-01-19T18:20:15.373Z,-0.20
2023-01-19T18:21:48.464Z,-0.20
2023-01-19T18:23:21.529Z,-0.10
2023-01-19T18:24:54.703Z,-0.10
2023-01-19T18:26:29.792Z,0.00
2023-01-19T18:28:03.032Z,0.00
2023-01-19T18:29:36.131Z,0.10
2023-01-19T18:31:09.756Z,0.10
2023-01-19T18:32:42.904Z,0.10
2023-01-19T18:34:15.980Z,0.20
2023-01-19T18:35:49.100Z,0.20
2023-01-19T18:37:22.209Z,0.20
2023-01-19T18:38:55.270Z,0.10
2023-01-19T18:40:28.727Z,0.20
2023-01-19T18:42:03.122Z,0.10
2023-01-19T18:43:36.535Z,0.20
2023-01-19T18:45:10.724Z,0.20
2023-01-19T18:46:43.828Z,0.20
2023-01-19T18:48:18.087Z,0.30
2023-01-19T18:49:51.627Z,0.30
2023-01-19T18:51:24.726Z,0.30
2023-01-19T18:52:57.890Z,0.30
2023-01-19T18:54:31.002Z,0.30
2023-01-19T18:56:04.619Z,0.30
2023-01-19T18:57:39.035Z,0.20
2023-01-19T18:59:12.188Z,0.20
2023-01-19T19:00:45.243Z,0.20
2023-01-19T19:02:18.624Z,0.20
2023-01-19T19:03:52.758Z,0.30
2023-01-19T19:05:26.234Z,0.30
2023-01-19T19:06:59.494Z,0.40
2023-01-19T19:08:34.157Z,0.40
2023-01-19T19:10:08.435Z,0.40
2023-01-19T19:11:41.535Z,0.30
2023-01-19T19:13:20.518Z,0.30
2023-01-19T19:14:53.936Z,0.30
2023-01-19T19:16:27.398Z,0.20
2023-01-19T19:18:00.688Z,0.20
2023-01-19T19:19:33.900Z,0.20
2023-01-19T19:21:07.996Z,0.10
2023-01-19T19:22:41.146Z,0.10
2023-01-19T19:24:14.207Z,0.20
2023-01-19T19:25:47.473Z,0.20
2023-01-19T19:27:20.566Z,0.20
2023-01-19T19:28:54.991Z,0.20
2023-01-19T19:30:27.184Z,0.20
2023-01-19T19:32:00.325Z,0.20
2023-01-19T19:33:33.767Z,0.30
2023-01-19T19:35:07.561Z,0.30
2023-01-19T19:36:42.037Z,0.30
2023-01-19T19:38:15.173Z,0.30
2023-01-19T19:39:49.428Z,0.30
2023-01-19T19:41:24.734Z,0.30
2023-01-19T19:42:58.940Z,0.30
2023-01-19T19:44:33.456Z,0.30
2023-01-19T19:46:08.157Z,0.30
2023-01-19T19:47:42.790Z,0.30
2023-01-19T19:49:17.769Z,0.30
2023-01-19T19:50:50.877Z,0.20
2023-01-19T19:52:24.037Z,0.20
2023-01-19T19:53:59.680Z,0.30
2023-01-19T19:55:32.749Z,0.30
2023-01-19T19:57:05.907Z,0.30
2023-01-19T19:58:39.899Z,0.30
2023-01-19T20:00:15.180Z,0.40
2023-01-19T20:01:49.858Z,0.40
2023-01-19T20:03:23.272Z,0.50
2023-01-19T20:04:56.524Z,0.50
2023-01-19T20:06:29.824Z,0.60
2023-01-19T20:08:02.898Z,0.60
2023-01-19T20:09:37.886Z,0.60
2023-01-19T20:11:13.552Z,0.60
2023-01-19T20:12:46.604Z,0.50
2023-01-19T20:14:20.206Z,0.50
2023-01-19T20:15:54.724Z,0.50
2023-01-19T20:17:27.882Z,0.50
2023-01-19T20:19:01.096Z,0.50
2023-01-19T20:20:34.302Z,0.60
2023-01-19T20:22:08.368Z,0.60
2023-01-19T20:23:41.604Z,0.60
2023-01-19T20:25:14.838Z,0.60
2023-01-19T20:26:50.366Z,0.60
2023-01-19T20:28:23.476Z,0.60
2023-01-19T20:29:58.127Z,0.60
2023-01-19T20:31:34.604Z,0.60
2023-01-19T20:33:07.711Z,0.50
2023-01-19T20:34:40.968Z,0.60
2023-01-19T20:36:13.225Z,0.60
2023-01-19T20:37:46.651Z,0.60
2023-01-19T20:39:21.280Z,0.60
2023-01-19T20:40:55.059Z,0.50
